createdAt,value
2017-08-18T00:02:21.670Z,56.10
2017-08-18T00:04:50.074Z,55.90
2017-08-18T00:07:17.970Z,56.00
2017-08-18T00:09:45.466Z,55.70
2017-08-18T00:12:14.430Z,55.80
2017-08-18T00:14:41.939Z,55.70
2017-08-18T00:17:09.414Z,55.40
2017-08-18T00:19:36.895Z,55.50
2017-08-18T00:22:04.401Z,55.70
2017-08-18T00:24:31.882Z,56.20
2017-08-18T00:26:59.349Z,56.30
2017-08-18T00:29:26.857Z,56.10
2017-08-18T00:31:54.342Z,56.60
2017-08-18T00:34:21.825Z,57.00
2017-08-18T00:36:49.335Z,57.10
2017-08-18T00:39:16.820Z,57.20
2017-08-18T00:41:44.308Z,56.90
2017-08-18T00:44:11.810Z,56.50
2017-08-18T00:46:39.286Z,56.60
2017-08-18T00:49:07.536Z,56.80
2017-08-18T00:51:35.052Z,56.50
2017-08-18T00:54:02.531Z,56.00
2017-08-18T00:56:30.009Z,55.80
2017-08-18T00:58:57.512Z,56.10
2017-08-18T01:01:24.991Z,56.60
2017-08-18T01:03:52.475Z,56.30
2017-08-18T01:06:19.978Z,56.10
2017-08-18T01:08:48.227Z,56.00
2017-08-18T01:11:15.710Z,55.90
2017-08-18T01:13:43.210Z,56.00
2017-08-18T01:16:10.707Z,55.90
2017-08-18T01:18:38.186Z,56.30
2017-08-18T01:21:05.688Z,55.90
2017-08-18T01:23:33.183Z,56.40
2017-08-18T01:26:00.667Z,56.10
2017-08-18T01:28:29.053Z,56.70
2017-08-18T01:30:57.302Z,57.20
2017-08-18T01:33:24.783Z,57.10
2017-08-18T01:35:53.062Z,57.70
2017-08-18T01:38:21.324Z,57.70
2017-08-18T01:40:48.841Z,57.60
2017-08-18T01:43:16.351Z,57.60
2017-08-18T01:45:43.825Z,57.70
2017-08-18T01:48:11.297Z,57.90
2017-08-18T01:50:38.803Z,57.80
2017-08-18T01:53:06.279Z,58.60
2017-08-18T01:55:33.768Z,58.20
2017-08-18T01:58:01.291Z,58.30
2017-08-18T02:00:28.770Z,58.20
2017-08-18T02:02:57.022Z,58.30
2017-08-18T02:05:24.528Z,58.30
2017-08-18T02:07:52.006Z,58.50
2017-08-18T02:10:19.478Z,58.20
2017-08-18T02:12:46.983Z,57.50
2017-08-18T02:15:15.234Z,56.50
2017-08-18T02:17:42.718Z,56.40
2017-08-18T02:20:10.997Z,56.80
2017-08-18T02:22:39.242Z,56.60
2017-08-18T02:25:06.731Z,56.60
2017-08-18T02:27:35.010Z,58.30
2017-08-18T02:30:03.266Z,58.00
2017-08-18T02:32:30.754Z,58.00
2017-08-18T02:34:58.252Z,57.30
2017-08-18T02:37:25.736Z,57.80
2017-08-18T02:39:53.206Z,58.50
2017-08-18T02:42:20.710Z,58.20
2017-08-18T02:44:48.191Z,58.70
2017-08-18T02:47:15.676Z,58.50
2017-08-18T02:49:43.201Z,58.30
2017-08-18T02:52:10.681Z,58.50
2017-08-18T02:54:38.166Z,58.70
2017-08-18T02:57:05.671Z,58.90
2017-08-18T02:59:33.164Z,59.40
2017-08-18T03:02:00.650Z,59.60
2017-08-18T03:04:28.930Z,59.60
2017-08-18T03:06:57.178Z,60.30
2017-08-18T03:09:24.667Z,60.30
2017-08-18T03:11:52.945Z,60.20
2017-08-18T03:14:21.186Z,60.50
2017-08-18T03:16:48.665Z,60.50
2017-08-18T03:19:16.171Z,61.00
2017-08-18T03:21:43.658Z,60.10
2017-08-18T03:24:11.138Z,60.90
2017-08-18T03:26:38.642Z,61.10
2017-08-18T03:29:06.126Z,61.10
2017-08-18T03:31:33.610Z,61.10
2017-08-18T03:34:01.114Z,61.10
2017-08-18T03:36:28.614Z,61.20
2017-08-18T03:38:56.098Z,61.10
2017-08-18T03:41:23.598Z,61.30
2017-08-18T03:43:51.090Z,61.20
2017-08-18T03:46:18.573Z,61.40
2017-08-18T03:48:46.087Z,61.50
2017-08-18T03:51:13.571Z,61.70
2017-08-18T03:53:41.067Z,61.80
2017-08-18T03:56:09.380Z,61.90
2017-08-18T03:58:36.865Z,61.80
2017-08-18T04:01:04.352Z,60.90
2017-08-18T04:03:31.851Z,60.80
2017-08-18T04:05:59.325Z,61.00
2017-08-18T04:08:26.797Z,61.20
2017-08-18T04:10:54.310Z,60.70
2017-08-18T04:13:22.554Z,60.10
2017-08-18T04:15:50.047Z,60.10
2017-08-18T04:18:17.561Z,60.80
2017-08-18T04:20:45.029Z,60.40
2017-08-18T04:23:12.502Z,61.30
2017-08-18T04:25:40.009Z,61.20
2017-08-18T04:28:07.504Z,61.30
2017-08-18T04:30:34.973Z,61.10
2017-08-18T04:33:02.488Z,60.00
2017-08-18T04:35:29.971Z,59.80
2017-08-18T04:37:57.465Z,59.50
2017-08-18T04:40:25.741Z,58.90
2017-08-18T04:42:53.999Z,59.00
2017-08-18T04:45:21.494Z,59.00
2017-08-18T04:47:49.002Z,59.10
2017-08-18T04:50:16.482Z,59.40
2017-08-18T04:52:43.962Z,59.70
2017-08-18T04:55:12.233Z,59.40
2017-08-18T04:57:40.483Z,59.70
2017-08-18T05:00:07.968Z,59.60
2017-08-18T05:03:04.751Z,59.70
2017-08-18T05:05:32.239Z,60.00
2017-08-18T05:07:59.726Z,60.10
2017-08-18T05:10:28.001Z,60.70
2017-08-18T05:12:56.245Z,60.00
2017-08-18T05:15:23.718Z,59.30
2017-08-18T05:17:51.217Z,59.70
2017-08-18T05:20:18.700Z,60.20
2017-08-18T05:22:46.185Z,61.20
2017-08-18T05:25:13.703Z,61.30
2017-08-18T05:27:41.185Z,61.70
2017-08-18T05:30:08.683Z,61.20
2017-08-18T05:32:36.187Z,60.20
2017-08-18T05:35:03.665Z,59.90
2017-08-18T05:37:31.141Z,59.50
2017-08-18T05:39:58.656Z,59.70
2017-08-18T05:42:26.160Z,59.40
2017-08-18T05:44:53.637Z,59.80
2017-08-18T05:47:21.155Z,59.20
2017-08-18T05:49:48.647Z,58.80
2017-08-18T05:52:16.162Z,59.10
2017-08-18T05:54:43.669Z,59.10
2017-08-18T05:57:11.153Z,58.80
2017-08-18T05:59:39.404Z,59.50
2017-08-18T06:02:06.906Z,59.50
2017-08-18T06:04:34.398Z,59.90
2017-08-18T06:07:02.077Z,59.60
2017-08-18T06:09:30.145Z,59.50
2017-08-18T06:11:57.643Z,60.00
2017-08-18T06:14:25.140Z,59.80
2017-08-18T06:16:52.645Z,59.60
2017-08-18T06:19:20.127Z,60.10
2017-08-18T06:21:47.718Z,59.90
2017-08-18T06:24:15.236Z,59.80
2017-08-18T06:26:43.491Z,59.40
2017-08-18T06:29:10.966Z,59.40
2017-08-18T06:31:39.234Z,59.30
2017-08-18T06:34:06.724Z,59.60
2017-08-18T06:36:34.206Z,59.20
2017-08-18T06:39:01.719Z,59.90
2017-08-18T06:41:29.189Z,59.60
2017-08-18T06:43:57.451Z,59.30
2017-08-18T06:46:24.995Z,59.20
2017-08-18T06:48:52.482Z,58.90
2017-08-18T06:51:19.970Z,58.90
2017-08-18T06:53:47.473Z,58.00
2017-08-18T06:56:14.958Z,58.40
2017-08-18T06:58:43.205Z,58.10
2017-08-18T07:01:10.736Z,57.50
2017-08-18T07:03:38.229Z,57.80
2017-08-18T07:06:05.714Z,57.90
2017-08-18T07:08:33.986Z,57.20
2017-08-18T07:11:02.243Z,56.80
2017-08-18T07:13:29.723Z,56.80
2017-08-18T07:15:58.015Z,57.30
2017-08-18T07:18:25.499Z,57.20
2017-08-18T07:20:52.996Z,57.50
2017-08-18T07:23:20.510Z,57.70
2017-08-18T07:25:47.995Z,57.40
2017-08-18T07:28:15.487Z,56.70
2017-08-18T07:30:42.989Z,56.80
2017-08-18T07:33:10.466Z,57.00
2017-08-18T07:35:37.953Z,56.70
2017-08-18T07:38:05.456Z,56.40
2017-08-18T07:40:32.932Z,55.80
2017-08-18T07:43:00.419Z,56.00
2017-08-18T07:45:27.926Z,56.20
2017-08-18T07:47:55.419Z,55.70
2017-08-18T07:50:22.905Z,55.70
2017-08-18T07:52:50.418Z,55.30
2017-08-18T07:55:17.899Z,55.00
2017-08-18T07:57:45.391Z,54.90
2017-08-18T08:00:12.906Z,54.90
2017-08-18T08:02:40.390Z,54.70
2017-08-18T08:05:07.890Z,54.70
2017-08-18T08:07:35.393Z,54.10
2017-08-18T08:10:02.885Z,54.20
2017-08-18T08:12:30.375Z,53.20
2017-08-18T08:14:57.893Z,53.00
2017-08-18T08:17:25.386Z,52.20
2017-08-18T08:19:52.926Z,50.40
2017-08-18T08:22:20.439Z,51.00
2017-08-18T08:24:47.923Z,51.40
2017-08-18T08:27:15.426Z,51.60
2017-08-18T08:29:43.710Z,52.30
2017-08-18T08:32:11.455Z,52.10
2017-08-18T08:34:39.954Z,51.30
2017-08-18T08:37:07.550Z,51.50
2017-08-18T08:39:35.077Z,51.90
2017-08-18T08:42:03.390Z,51.80
2017-08-18T08:44:30.897Z,51.80
2017-08-18T08:46:59.269Z,50.30
2017-08-18T08:49:26.883Z,50.30
2017-08-18T08:51:55.047Z,51.90
2017-08-18T08:54:22.836Z,48.10
2017-08-18T08:56:50.339Z,50.00
2017-08-18T08:59:17.846Z,49.70
2017-08-18T09:01:45.322Z,46.40
2017-08-18T09:04:12.839Z,47.30
2017-08-18T09:06:40.389Z,46.20
2017-08-18T09:09:08.949Z,47.60
2017-08-18T09:11:36.437Z,47.60
2017-08-18T09:14:04.707Z,46.00
2017-08-18T09:16:32.966Z,45.30
2017-08-18T09:19:00.447Z,45.20
2017-08-18T09:21:27.984Z,44.50
2017-08-18T09:23:55.461Z,43.10
2017-08-18T09:26:23.847Z,46.20
2017-08-18T09:28:52.238Z,46.20
2017-08-18T09:31:19.719Z,46.30
2017-08-18T09:33:47.280Z,44.30
2017-08-18T09:36:14.773Z,43.20
2017-08-18T09:38:42.281Z,47.00
2017-08-18T09:41:09.790Z,46.00
2017-08-18T09:43:37.311Z,45.40
2017-08-18T09:46:04.874Z,44.90
2017-08-18T09:48:44.205Z,46.00
2017-08-18T09:51:23.685Z,46.70
2017-08-18T09:54:02.974Z,47.70
2017-08-18T09:56:42.395Z,44.40
2017-08-18T09:59:12.471Z,41.70
2017-08-18T10:01:39.981Z,41.70
2017-08-18T10:04:07.850Z,43.80
2017-08-18T10:06:35.534Z,41.90
2017-08-18T10:09:04.325Z,40.40
2017-08-18T10:11:32.601Z,37.90
2017-08-18T10:14:00.778Z,39.00
2017-08-18T10:16:29.277Z,42.20
2017-08-18T10:18:56.758Z,42.30
2017-08-18T10:21:24.261Z,39.80
2017-08-18T10:23:51.742Z,39.70
2017-08-18T10:26:19.222Z,42.60
2017-08-18T10:28:46.719Z,43.30
2017-08-18T10:31:14.972Z,39.20
2017-08-18T10:33:42.470Z,39.10
2017-08-18T10:36:09.989Z,35.90
2017-08-18T10:38:37.477Z,34.90
2017-08-18T10:41:05.717Z,36.70
2017-08-18T10:43:33.223Z,36.70
2017-08-18T10:46:00.711Z,34.60
2017-08-18T10:48:28.187Z,37.00
2017-08-18T10:50:55.692Z,35.00
2017-08-18T10:53:23.938Z,34.20
2017-08-18T10:55:51.420Z,34.20
2017-08-18T10:58:19.697Z,40.70
2017-08-18T11:00:47.945Z,35.60
2017-08-18T11:03:15.438Z,34.90
2017-08-18T11:05:43.706Z,39.50
2017-08-18T11:08:11.953Z,40.40
2017-08-18T11:10:39.434Z,40.20
2017-08-18T11:13:06.942Z,35.20
2017-08-18T11:15:34.431Z,40.10
2017-08-18T11:18:01.934Z,38.30
2017-08-18T11:20:30.204Z,34.80
2017-08-18T11:22:58.450Z,34.70
2017-08-18T11:25:25.932Z,34.80
2017-08-18T11:27:53.440Z,36.30
2017-08-18T11:30:20.923Z,35.50
2017-08-18T11:32:48.404Z,39.80
2017-08-18T11:35:15.919Z,39.20
2017-08-18T11:37:43.405Z,38.50
2017-08-18T11:40:10.901Z,36.70
2017-08-18T11:42:38.406Z,33.80
2017-08-18T11:45:05.948Z,37.20
2017-08-18T11:47:33.438Z,33.20
2017-08-18T11:50:00.961Z,39.10
2017-08-18T11:52:28.459Z,37.50
2017-08-18T11:54:55.956Z,34.50
2017-08-18T11:57:24.234Z,34.00
2017-08-18T11:59:51.730Z,33.90
2017-08-18T12:02:19.212Z,32.40
2017-08-18T12:04:46.711Z,34.10
2017-08-18T12:07:14.954Z,33.10
2017-08-18T12:09:42.434Z,33.00
2017-08-18T12:12:10.710Z,31.60
2017-08-18T12:14:38.958Z,36.00
2017-08-18T12:17:06.452Z,36.00
2017-08-18T12:19:33.972Z,35.90
2017-08-18T12:22:01.463Z,33.30
2017-08-18T12:24:29.718Z,35.20
2017-08-18T12:26:58.215Z,35.40
2017-08-18T12:29:26.668Z,33.00
2017-08-18T12:31:54.888Z,36.80
2017-08-18T12:34:23.158Z,32.60
2017-08-18T12:36:51.408Z,33.70
2017-08-18T12:39:18.877Z,33.40
2017-08-18T12:41:46.385Z,33.50
2017-08-18T12:44:13.858Z,35.50
2017-08-18T12:46:41.732Z,33.10
2017-08-18T12:49:09.239Z,31.70
2017-08-18T12:51:37.625Z,35.30
2017-08-18T12:54:06.872Z,37.40
2017-08-18T12:56:34.777Z,37.40
2017-08-18T12:59:04.459Z,36.50
2017-08-18T13:01:32.617Z,36.50
2017-08-18T13:04:00.164Z,34.60
2017-08-18T13:06:27.648Z,31.00
2017-08-18T13:08:55.298Z,30.50
2017-08-18T13:11:22.818Z,31.40
2017-08-18T13:13:51.074Z,31.50
2017-08-18T13:16:18.562Z,31.50
2017-08-18T13:18:46.826Z,34.60
2017-08-18T13:21:15.100Z,33.90
2017-08-18T13:23:43.347Z,34.30
2017-08-18T13:26:10.845Z,33.60
2017-08-18T13:28:39.098Z,32.50
2017-08-18T13:31:07.236Z,32.50
2017-08-18T13:33:35.143Z,31.50
2017-08-18T13:36:02.771Z,30.90
2017-08-18T13:38:31.048Z,31.30
2017-08-18T13:40:58.567Z,31.30
2017-08-18T13:43:26.804Z,32.40
2017-08-18T13:45:54.276Z,32.30
2017-08-18T13:48:21.778Z,33.40
2017-08-18T13:50:49.270Z,33.00
2017-08-18T13:53:16.751Z,33.30
2017-08-18T13:55:44.258Z,36.90
2017-08-18T13:58:11.726Z,37.20
2017-08-18T14:00:39.202Z,35.50
2017-08-18T14:03:06.712Z,33.80
2017-08-18T14:05:34.958Z,32.30
2017-08-18T14:08:02.445Z,32.20
2017-08-18T14:10:30.717Z,33.50
2017-08-18T14:12:59.014Z,35.10
2017-08-18T14:15:27.267Z,33.20
2017-08-18T14:17:54.784Z,33.20
2017-08-18T14:20:22.271Z,35.00
2017-08-18T14:22:49.754Z,35.00
2017-08-18T14:25:23.609Z,32.80
2017-08-18T14:27:51.081Z,32.60
2017-08-18T14:30:18.569Z,33.40
2017-08-18T14:32:46.074Z,33.10
2017-08-18T14:35:13.556Z,35.60
2017-08-18T14:37:41.051Z,34.60
2017-08-18T14:40:09.322Z,32.40
2017-08-18T14:42:36.810Z,32.20
2017-08-18T14:45:04.300Z,33.50
2017-08-18T14:47:31.802Z,32.70
2017-08-18T14:49:59.287Z,32.20
2017-08-18T14:52:26.780Z,33.50
2017-08-18T14:54:54.273Z,32.60
2017-08-18T14:57:21.751Z,33.10
2017-08-18T14:59:50.000Z,33.00
2017-08-18T15:02:17.494Z,33.00
2017-08-18T15:04:45.740Z,33.00
2017-08-18T15:07:13.222Z,32.90
2017-08-18T15:09:40.735Z,34.20
2017-08-18T15:12:08.205Z,33.90
2017-08-18T15:14:35.683Z,33.80
2017-08-18T15:17:03.181Z,32.20
2017-08-18T15:19:30.671Z,33.60
2017-08-18T15:21:58.158Z,32.70
2017-08-18T15:24:25.667Z,32.80
2017-08-18T15:26:53.150Z,33.60
2017-08-18T15:29:20.616Z,33.80
2017-08-18T15:31:48.352Z,32.50
2017-08-18T15:34:16.220Z,31.60
2017-08-18T15:36:43.718Z,32.70
2017-08-18T15:39:11.416Z,33.20
2017-08-18T15:41:39.702Z,33.50
2017-08-18T15:44:07.238Z,33.60
2017-08-18T15:46:35.516Z,33.10
2017-08-18T15:49:03.760Z,33.40
2017-08-18T15:51:31.252Z,33.60
2017-08-18T15:53:59.535Z,35.10
2017-08-18T15:56:27.790Z,33.10
2017-08-18T15:58:55.282Z,33.10
2017-08-18T16:01:22.812Z,33.80
2017-08-18T16:03:50.326Z,34.20
2017-08-18T16:06:17.814Z,33.70
2017-08-18T16:08:45.324Z,33.50
2017-08-18T16:11:12.815Z,33.70
2017-08-18T16:13:40.297Z,33.30
2017-08-18T16:16:07.803Z,33.60
2017-08-18T16:18:35.291Z,33.50
2017-08-18T16:21:02.788Z,34.00
2017-08-18T16:23:30.299Z,34.10
2017-08-18T16:25:57.777Z,34.00
2017-08-18T16:28:25.252Z,34.40
2017-08-18T16:30:52.756Z,34.70
2017-08-18T16:33:20.242Z,35.00
2017-08-18T16:35:47.738Z,34.70
2017-08-18T16:38:15.253Z,36.60
2017-08-18T16:40:42.739Z,34.90
2017-08-18T16:43:10.222Z,35.60
2017-08-18T16:45:37.726Z,35.40
2017-08-18T16:48:05.205Z,36.50
2017-08-18T16:50:32.699Z,35.70
2017-08-18T16:53:00.984Z,35.90
2017-08-18T16:55:29.239Z,36.40
2017-08-18T16:57:56.723Z,35.90
2017-08-18T17:00:24.998Z,35.90
2017-08-18T17:02:53.238Z,36.00
2017-08-18T17:05:20.721Z,36.00
2017-08-18T17:07:48.237Z,36.10
2017-08-18T17:10:15.737Z,36.50
2017-08-18T17:12:43.220Z,36.00
2017-08-18T17:15:11.497Z,36.40
2017-08-18T17:17:39.735Z,36.80
2017-08-18T17:20:07.212Z,36.80
2017-08-18T17:22:34.722Z,37.00
2017-08-18T17:25:02.209Z,37.10
2017-08-18T17:27:29.688Z,37.50
2017-08-18T17:29:57.202Z,37.50
2017-08-18T17:32:24.681Z,37.50
2017-08-18T17:34:52.168Z,38.00
2017-08-18T17:37:19.670Z,38.30
2017-08-18T17:39:47.159Z,38.90
2017-08-18T17:42:14.641Z,38.80
2017-08-18T17:44:42.148Z,39.00
2017-08-18T17:47:09.637Z,38.90
2017-08-18T17:49:37.130Z,39.80
2017-08-18T17:52:05.416Z,39.90
2017-08-18T17:54:33.792Z,40.20
2017-08-18T17:57:01.299Z,40.10
2017-08-18T17:59:28.805Z,40.60
2017-08-18T18:01:57.067Z,41.50
2017-08-18T18:04:24.546Z,41.50
2017-08-18T18:06:52.822Z,41.50
2017-08-18T18:09:20.306Z,41.50
2017-08-18T18:11:47.793Z,42.10
2017-08-18T18:14:15.416Z,42.20
2017-08-18T18:16:43.010Z,42.00
2017-08-18T18:19:11.690Z,42.30
2017-08-18T18:21:39.355Z,42.80
2017-08-18T18:24:07.038Z,43.10
2017-08-18T18:26:34.965Z,42.80
2017-08-18T18:29:04.797Z,43.50
2017-08-18T18:31:32.863Z,43.50
2017-08-18T18:34:00.952Z,43.40
2017-08-18T18:36:29.408Z,43.30
2017-08-18T18:38:57.387Z,43.10
2017-08-18T18:41:25.946Z,44.30
2017-08-18T18:43:55.893Z,43.90
2017-08-18T18:46:23.933Z,43.80
2017-08-18T18:48:52.341Z,44.40
2017-08-18T18:51:20.806Z,44.40
2017-08-18T18:53:48.937Z,44.60
2017-08-18T18:56:17.254Z,44.10
2017-08-18T18:58:46.148Z,44.40
2017-08-18T19:01:14.866Z,44.40
2017-08-18T19:03:42.943Z,44.30
2017-08-18T19:06:10.972Z,44.80
2017-08-18T19:08:39.964Z,44.70
2017-08-18T19:11:08.830Z,44.40
2017-08-18T19:13:37.272Z,44.40
2017-08-18T19:16:05.246Z,45.10
2017-08-18T19:18:32.726Z,44.40
2017-08-18T19:21:00.234Z,44.60
2017-08-18T19:23:27.720Z,45.80
2017-08-18T19:25:55.220Z,45.50
2017-08-18T19:28:22.727Z,45.70
2017-08-18T19:30:50.227Z,45.90
2017-08-18T19:33:17.730Z,45.10
2017-08-18T19:35:46.020Z,46.40
2017-08-18T19:38:13.515Z,46.40
2017-08-18T19:40:41.314Z,46.20
2017-08-18T19:43:09.753Z,46.10
2017-08-18T19:45:37.397Z,45.50
2017-08-18T19:48:05.041Z,45.90
2017-08-18T19:50:33.422Z,46.20
2017-08-18T19:53:01.716Z,46.20
2017-08-18T19:55:29.306Z,46.20
2017-08-18T19:57:57.648Z,45.60
2017-08-18T20:00:26.321Z,46.40
2017-08-18T20:02:54.569Z,46.60
2017-08-18T20:05:22.083Z,46.60
2017-08-18T20:07:49.566Z,46.40
2017-08-18T20:10:17.057Z,45.50
2017-08-18T20:12:44.577Z,46.90
2017-08-18T20:15:12.194Z,46.90
2017-08-18T20:17:40.612Z,47.20
2017-08-18T20:20:08.285Z,47.10
2017-08-18T20:22:35.809Z,46.70
2017-08-18T20:25:03.311Z,46.90
2017-08-18T20:27:30.809Z,46.90
2017-08-18T20:29:59.073Z,47.00
2017-08-18T20:32:26.571Z,46.90
2017-08-18T20:34:54.250Z,47.30
2017-08-18T20:37:21.799Z,47.20
2017-08-18T20:39:49.372Z,46.20
2017-08-18T20:42:16.899Z,46.90
2017-08-18T20:44:45.350Z,46.50
2017-08-18T20:47:12.876Z,46.40
2017-08-18T20:49:40.433Z,47.30
2017-08-18T20:52:07.925Z,47.80
2017-08-18T20:54:35.774Z,47.40
2017-08-18T20:57:03.331Z,47.40
2017-08-18T20:59:30.823Z,47.20
2017-08-18T21:01:58.482Z,47.60
2017-08-18T21:04:26.106Z,47.00
2017-08-18T21:06:53.634Z,47.20
2017-08-18T21:09:21.225Z,47.60
2017-08-18T21:11:48.729Z,47.90
2017-08-18T21:14:16.252Z,48.00
2017-08-18T21:16:43.761Z,47.90
2017-08-18T21:19:12.082Z,48.40
2017-08-18T21:21:39.585Z,48.40
2017-08-18T21:24:07.070Z,48.40
2017-08-18T21:26:34.670Z,47.90
2017-08-18T21:29:02.316Z,48.70
2017-08-18T21:31:29.868Z,48.60
2017-08-18T21:33:57.398Z,48.70
2017-08-18T21:36:24.893Z,48.70
2017-08-18T21:38:52.583Z,48.40
2017-08-18T21:41:20.126Z,49.10
2017-08-18T21:43:47.846Z,48.90
2017-08-18T21:46:15.479Z,49.20
2017-08-18T21:48:42.996Z,49.40
2017-08-18T21:51:10.533Z,49.30
2017-08-18T21:53:38.772Z,49.10
2017-08-18T21:56:06.309Z,49.00
2017-08-18T21:58:33.799Z,49.20
2017-08-18T22:01:01.300Z,49.00
2017-08-18T22:03:29.582Z,49.60
2017-08-18T22:05:57.074Z,49.60
2017-08-18T22:08:24.581Z,49.40
2017-08-18T22:10:52.114Z,49.50
2017-08-18T22:13:19.604Z,50.00
2017-08-18T22:15:47.153Z,50.20
2017-08-18T22:18:15.838Z,50.40
2017-08-18T22:20:43.340Z,50.40
2017-08-18T22:23:11.319Z,50.40
2017-08-18T22:25:38.844Z,50.50
2017-08-18T22:28:06.425Z,50.40
2017-08-18T22:30:33.907Z,50.50
2017-08-18T22:33:01.416Z,50.80
2017-08-18T22:35:29.738Z,49.80
2017-08-18T22:37:57.256Z,49.70
2017-08-18T22:40:25.020Z,49.10
2017-08-18T22:42:52.590Z,49.20
2017-08-18T22:45:20.064Z,49.30
2017-08-18T22:47:47.613Z,49.50
2017-08-18T22:50:15.095Z,50.00
2017-08-18T22:52:42.587Z,50.10
2017-08-18T22:55:10.289Z,49.60
2017-08-18T22:57:37.782Z,49.50
2017-08-18T23:00:05.275Z,49.90
2017-08-18T23:02:32.795Z,48.50
2017-08-18T23:05:00.283Z,48.50
2017-08-18T23:07:27.770Z,47.80
2017-08-18T23:09:56.050Z,47.70
2017-08-18T23:12:23.548Z,47.70
2017-08-18T23:14:51.036Z,48.10
2017-08-18T23:17:18.546Z,49.40
2017-08-18T23:19:46.795Z,48.30
2017-08-18T23:22:14.287Z,48.30
2017-08-18T23:24:41.830Z,48.40
2017-08-18T23:27:09.325Z,48.60
2017-08-18T23:29:36.823Z,48.90
2017-08-18T23:32:04.331Z,49.10
2017-08-18T23:34:31.810Z,49.00
2017-08-18T23:36:59.293Z,48.10
2017-08-18T23:39:26.795Z,50.20
2017-08-18T23:41:55.054Z,47.80
2017-08-18T23:44:22.532Z,47.00
2017-08-18T23:46:50.793Z,48.30
2017-08-18T23:49:18.283Z,48.20
2017-08-18T23:51:45.777Z,48.20
2017-08-18T23:54:13.300Z,47.50
2017-08-18T23:56:40.786Z,47.60
2017-08-18T23:59:08.291Z,47.90
